sensor_id;sensor_type;location;lat;lon;timestamp;temperature;humidity
6110;DHT22;3085;49.444;11.054;2024-01-07T00:02:11;4.20;99.90
6110;DHT22;3085;49.444;11.054;2024-01-07T00:04:40;4.10;99.90
6110;DHT22;3085;49.444;11.054;2024-01-07T00:07:06;4.20;99.90
6110;DHT22;3085;49.444;11.054;2024-01-07T00:09:33;4.30;99.90
6110;DHT22;3085;49.444;11.054;2024-01-07T00:12:00;4.30;99.90
6110;DHT22;3085;49.444;11.054;2024-01-07T00:14:26;4.20;99.90
6110;DHT22;3085;49.444;11.054;2024-01-07T00:16:53;4.20;99.90
6110;DHT22;3085;49.444;11.054;2024-01-07T00:19:21;4.20;99.90
6110;DHT22;3085;49.444;11.054;2024-01-07T00:21:48;4.30;99.90
6110;DHT22;3085;49.444;11.054;2024-01-07T00:24:15;4.30;99.90
6110;DHT22;3085;49.444;11.054;2024-01-07T00:26:42;4.30;99.90
6110;DHT22;3085;49.444;11.054;2024-01-07T00:29:08;4.30;99.90
6110;DHT22;3085;49.444;11.054;2024-01-07T00:31:35;4.30;99.90
6110;DHT22;3085;49.444;11.054;2024-01-07T00:34:02;4.30;99.90
6110;DHT22;3085;49.444;11.054;2024-01-07T00:36:30;4.20;99.90
6110;DHT22;3085;49.444;11.054;2024-01-07T00:38:56;4.30;99.90
6110;DHT22;3085;49.444;11.054;2024-01-07T00:41:23;4.30;99.90
6110;DHT22;3085;49.444;11.054;2024-01-07T00:43:50;4.20;99.90
6110;DHT22;3085;49.444;11.054;2024-01-07T00:46:18;4.20;99.90
6110;DHT22;3085;49.444;11.054;2024-01-07T00:48:44;4.30;99.90
6110;DHT22;3085;49.444;11.054;2024-01-07T00:51:11;4.30;99.90
6110;DHT22;3085;49.444;11.054;2024-01-07T00:53:40;4.30;99.90
6110;DHT22;3085;49.444;11.054;2024-01-07T00:56:07;5.20;99.90
6110;DHT22;3085;49.444;11.054;2024-01-07T00:58:33;4.20;99.90
6110;DHT22;3085;49.444;11.054;2024-01-07T01:01:02;4.20;99.90
6110;DHT22;3085;49.444;11.054;2024-01-07T01:03:29;4.20;99.90
6110;DHT22;3085;49.444;11.054;2024-01-07T01:05:55;4.20;99.90
6110;DHT22;3085;49.444;11.054;2024-01-07T01:08:22;4.20;99.90
6110;DHT22;3085;49.444;11.054;2024-01-07T01:10:50;4.20;99.90
6110;DHT22;3085;49.444;11.054;2024-01-07T01:13:17;4.30;99.90
6110;DHT22;3085;49.444;11.054;2024-01-07T01:15:44;4.30;99.90
6110;DHT22;3085;49.444;11.054;2024-01-07T01:18:11;4.30;99.90
6110;DHT22;3085;49.444;11.054;2024-01-07T01:20:37;4.30;99.90
6110;DHT22;3085;49.444;11.054;2024-01-07T01:23:04;4.30;99.90
6110;DHT22;3085;49.444;11.054;2024-01-07T01:25:31;4.30;99.90
6110;DHT22;3085;49.444;11.054;2024-01-07T01:27:59;4.30;99.90
6110;DHT22;3085;49.444;11.054;2024-01-07T01:30:26;4.30;99.90
6110;DHT22;3085;49.444;11.054;2024-01-07T01:32:53;4.30;99.90
6110;DHT22;3085;49.444;11.054;2024-01-07T01:35:19;4.30;99.90
6110;DHT22;3085;49.444;11.054;2024-01-07T01:37:46;4.30;99.90
6110;DHT22;3085;49.444;11.054;2024-01-07T01:40:13;4.30;99.90
6110;DHT22;3085;49.444;11.054;2024-01-07T01:42:43;4.30;99.90
6110;DHT22;3085;49.444;11.054;2024-01-07T01:45:11;4.30;99.90
6110;DHT22;3085;49.444;11.054;2024-01-07T01:47:37;4.30;99.90
6110;DHT22;3085;49.444;11.054;2024-01-07T01:50:06;4.30;99.90
6110;DHT22;3085;49.444;11.054;2024-01-07T01:52:33;4.30;99.90
6110;DHT22;3085;49.444;11.054;2024-01-07T01:55:00;4.30;99.90
6110;DHT22;3085;49.444;11.054;2024-01-07T01:57:33;4.30;99.90
6110;DHT22;3085;49.444;11.054;2024-01-07T02:00:01;4.30;99.90
6110;DHT22;3085;49.444;11.054;2024-01-07T02:02:32;4.30;99.90
6110;DHT22;3085;49.444;11.054;2024-01-07T02:04:59;4.30;99.90
6110;DHT22;3085;49.444;11.054;2024-01-07T02:07:26;4.40;99.90
6110;DHT22;3085;49.444;11.054;2024-01-07T02:09:53;4.40;99.90
6110;DHT22;3085;49.444;11.054;2024-01-07T02:12:20;4.40;99.90
6110;DHT22;3085;49.444;11.054;2024-01-07T02:14:47;4.30;99.90
6110;DHT22;3085;49.444;11.054;2024-01-07T02:17:14;4.40;99.90
6110;DHT22;3085;49.444;11.054;2024-01-07T02:19:42;4.40;99.90
6110;DHT22;3085;49.444;11.054;2024-01-07T02:22:09;4.30;99.90
6110;DHT22;3085;49.444;11.054;2024-01-07T02:24:37;4.40;99.90
6110;DHT22;3085;49.444;11.054;2024-01-07T02:27:04;4.50;99.90
6110;DHT22;3085;49.444;11.054;2024-01-07T02:29:30;4.50;99.90
6110;DHT22;3085;49.444;11.054;2024-01-07T02:31:57;4.40;99.90
6110;DHT22;3085;49.444;11.054;2024-01-07T02:34:24;4.40;99.90
6110;DHT22;3085;49.444;11.054;2024-01-07T02:36:51;4.40;99.90
6110;DHT22;3085;49.444;11.054;2024-01-07T02:39:18;4.50;99.90
6110;DHT22;3085;49.444;11.054;2024-01-07T02:41:46;4.40;99.90
6110;DHT22;3085;49.444;11.054;2024-01-07T02:44:13;4.50;99.90
6110;DHT22;3085;49.444;11.054;2024-01-07T02:46:40;4.60;99.90
6110;DHT22;3085;49.444;11.054;2024-01-07T02:49:10;4.60;99.90
6110;DHT22;3085;49.444;11.054;2024-01-07T02:51:36;4.60;99.90
6110;DHT22;3085;49.444;11.054;2024-01-07T02:54:06;4.40;99.90
6110;DHT22;3085;49.444;11.054;2024-01-07T02:56:33;4.40;99.90
6110;DHT22;3085;49.444;11.054;2024-01-07T02:59:01;4.40;99.90
6110;DHT22;3085;49.444;11.054;2024-01-07T03:01:28;4.30;99.90
6110;DHT22;3085;49.444;11.054;2024-01-07T03:03:55;4.40;99.90
6110;DHT22;3085;49.444;11.054;2024-01-07T03:06:21;4.40;99.90
6110;DHT22;3085;49.444;11.054;2024-01-07T03:08:48;4.40;99.90
6110;DHT22;3085;49.444;11.054;2024-01-07T03:11:15;4.30;99.90
6110;DHT22;3085;49.444;11.054;2024-01-07T03:13:41;4.20;99.90
6110;DHT22;3085;49.444;11.054;2024-01-07T03:16:19;4.20;99.90
6110;DHT22;3085;49.444;11.054;2024-01-07T03:18:46;4.20;99.90
6110;DHT22;3085;49.444;11.054;2024-01-07T03:21:17;4.20;99.90
6110;DHT22;3085;49.444;11.054;2024-01-07T03:23:44;4.20;99.90
6110;DHT22;3085;49.444;11.054;2024-01-07T03:26:11;4.10;99.90
6110;DHT22;3085;49.444;11.054;2024-01-07T03:28:38;4.20;99.90
6110;DHT22;3085;49.444;11.054;2024-01-07T03:31:05;4.20;99.90
6110;DHT22;3085;49.444;11.054;2024-01-07T03:33:33;4.30;99.90
6110;DHT22;3085;49.444;11.054;2024-01-07T03:36:00;4.10;99.90
6110;DHT22;3085;49.444;11.054;2024-01-07T03:38:27;4.10;99.90
6110;DHT22;3085;49.444;11.054;2024-01-07T03:40:54;4.10;99.90
6110;DHT22;3085;49.444;11.054;2024-01-07T03:43:20;4.20;99.90
6110;DHT22;3085;49.444;11.054;2024-01-07T03:45:47;4.10;99.90
6110;DHT22;3085;49.444;11.054;2024-01-07T03:48:15;4.20;99.90
6110;DHT22;3085;49.444;11.054;2024-01-07T03:50:43;4.10;99.90
6110;DHT22;3085;49.444;11.054;2024-01-07T03:53:10;4.10;99.90
6110;DHT22;3085;49.444;11.054;2024-01-07T03:55:37;4.20;99.90
6110;DHT22;3085;49.444;11.054;2024-01-07T03:58:04;4.20;99.90
6110;DHT22;3085;49.444;11.054;2024-01-07T04:00:31;4.20;99.90
6110;DHT22;3085;49.444;11.054;2024-01-07T04:02:58;4.10;99.90
6110;DHT22;3085;49.444;11.054;2024-01-07T04:05:24;4.10;99.90
6110;DHT22;3085;49.444;11.054;2024-01-07T04:07:53;4.10;99.90
6110;DHT22;3085;49.444;11.054;2024-01-07T04:10:19;4.10;99.90
6110;DHT22;3085;49.444;11.054;2024-01-07T04:12:46;4.00;99.90
6110;DHT22;3085;49.444;11.054;2024-01-07T04:15:13;3.90;99.90
6110;DHT22;3085;49.444;11.054;2024-01-07T04:17:40;3.80;99.90
6110;DHT22;3085;49.444;11.054;2024-01-07T04:20:12;3.80;99.90
6110;DHT22;3085;49.444;11.054;2024-01-07T04:22:38;3.70;99.90
6110;DHT22;3085;49.444;11.054;2024-01-07T04:25:07;3.70;99.90
6110;DHT22;3085;49.444;11.054;2024-01-07T04:27:35;3.80;99.90
6110;DHT22;3085;49.444;11.054;2024-01-07T04:30:02;3.70;99.90
6110;DHT22;3085;49.444;11.054;2024-01-07T04:32:29;3.70;99.90
6110;DHT22;3085;49.444;11.054;2024-01-07T04:34:56;3.70;99.90
6110;DHT22;3085;49.444;11.054;2024-01-07T04:37:23;3.80;99.90
6110;DHT22;3085;49.444;11.054;2024-01-07T04:39:49;3.70;99.90
6110;DHT22;3085;49.444;11.054;2024-01-07T04:42:18;3.70;99.90
6110;DHT22;3085;49.444;11.054;2024-01-07T04:44:45;3.70;99.90
6110;DHT22;3085;49.444;11.054;2024-01-07T04:47:28;3.80;99.90
6110;DHT22;3085;49.444;11.054;2024-01-07T04:49:55;3.80;99.90
6110;DHT22;3085;49.444;11.054;2024-01-07T04:52:22;3.70;99.90
6110;DHT22;3085;49.444;11.054;2024-01-07T04:54:50;3.20;99.90
6110;DHT22;3085;49.444;11.054;2024-01-07T04:57:18;3.70;99.90
6110;DHT22;3085;49.444;11.054;2024-01-07T04:59:45;3.70;99.90
6110;DHT22;3085;49.444;11.054;2024-01-07T05:02:12;3.70;99.90
6110;DHT22;3085;49.444;11.054;2024-01-07T05:04:39;3.70;99.90
6110;DHT22;3085;49.444;11.054;2024-01-07T05:07:06;3.60;99.90
6110;DHT22;3085;49.444;11.054;2024-01-07T05:09:33;3.70;99.90
6110;DHT22;3085;49.444;11.054;2024-01-07T05:12:00;3.60;99.90
6110;DHT22;3085;49.444;11.054;2024-01-07T05:14:28;3.60;99.90
6110;DHT22;3085;49.444;11.054;2024-01-07T05:16:55;3.50;99.90
6110;DHT22;3085;49.444;11.054;2024-01-07T05:19:21;3.60;99.90
6110;DHT22;3085;49.444;11.054;2024-01-07T05:21:48;3.50;99.90
6110;DHT22;3085;49.444;11.054;2024-01-07T05:24:15;3.50;99.90
6110;DHT22;3085;49.444;11.054;2024-01-07T05:26:43;3.50;99.90
6110;DHT22;3085;49.444;11.054;2024-01-07T05:29:10;3.50;99.90
6110;DHT22;3085;49.444;11.054;2024-01-07T05:31:39;3.50;99.90
6110;DHT22;3085;49.444;11.054;2024-01-07T05:34:06;3.50;99.90
6110;DHT22;3085;49.444;11.054;2024-01-07T05:36:33;3.80;99.90
6110;DHT22;3085;49.444;11.054;2024-01-07T05:39:00;3.40;99.90
6110;DHT22;3085;49.444;11.054;2024-01-07T05:41:27;3.50;99.90
6110;DHT22;3085;49.444;11.054;2024-01-07T05:43:54;3.50;99.90
6110;DHT22;3085;49.444;11.054;2024-01-07T05:46:20;3.50;99.90
6110;DHT22;3085;49.444;11.054;2024-01-07T05:48:49;3.50;99.90
6110;DHT22;3085;49.444;11.054;2024-01-07T05:51:16;3.30;99.90
6110;DHT22;3085;49.444;11.054;2024-01-07T05:53:43;3.40;99.90
6110;DHT22;3085;49.444;11.054;2024-01-07T05:56:10;3.30;99.90
6110;DHT22;3085;49.444;11.054;2024-01-07T05:58:37;3.20;99.90
6110;DHT22;3085;49.444;11.054;2024-01-07T06:01:04;3.10;99.90
6110;DHT22;3085;49.444;11.054;2024-01-07T06:03:30;3.10;99.90
6110;DHT22;3085;49.444;11.054;2024-01-07T06:05:59;3.10;99.90
6110;DHT22;3085;49.444;11.054;2024-01-07T06:08:25;3.10;99.90
6110;DHT22;3085;49.444;11.054;2024-01-07T06:10:52;3.20;99.90
6110;DHT22;3085;49.444;11.054;2024-01-07T06:13:19;3.20;99.90
6110;DHT22;3085;49.444;11.054;2024-01-07T06:15:46;3.10;99.90
6110;DHT22;3085;49.444;11.054;2024-01-07T06:18:12;3.10;99.90
6110;DHT22;3085;49.444;11.054;2024-01-07T06:20:39;3.00;99.90
6110;DHT22;3085;49.444;11.054;2024-01-07T06:23:07;3.10;99.90
6110;DHT22;3085;49.444;11.054;2024-01-07T06:25:34;2.90;99.90
6110;DHT22;3085;49.444;11.054;2024-01-07T06:28:00;2.90;99.90
6110;DHT22;3085;49.444;11.054;2024-01-07T06:30:27;2.90;99.90
6110;DHT22;3085;49.444;11.054;2024-01-07T06:32:54;3.00;99.90
6110;DHT22;3085;49.444;11.054;2024-01-07T06:35:21;2.90;99.90
6110;DHT22;3085;49.444;11.054;2024-01-07T06:37:48;2.80;99.90
6110;DHT22;3085;49.444;11.054;2024-01-07T06:40:16;2.90;99.90
6110;DHT22;3085;49.444;11.054;2024-01-07T06:42:43;3.00;99.90
6110;DHT22;3085;49.444;11.054;2024-01-07T06:45:10;3.00;99.90
6110;DHT22;3085;49.444;11.054;2024-01-07T06:47:37;3.00;99.90
6110;DHT22;3085;49.444;11.054;2024-01-07T06:50:04;3.00;99.90
6110;DHT22;3085;49.444;11.054;2024-01-07T06:52:31;3.10;99.90
6110;DHT22;3085;49.444;11.054;2024-01-07T06:54:58;2.90;99.90
6110;DHT22;3085;49.444;11.054;2024-01-07T06:57:27;3.00;99.90
6110;DHT22;3085;49.444;11.054;2024-01-07T06:59:54;2.80;99.90
6110;DHT22;3085;49.444;11.054;2024-01-07T07:02:21;3.00;99.90
6110;DHT22;3085;49.444;11.054;2024-01-07T07:07:49;2.80;99.90
6110;DHT22;3085;49.444;11.054;2024-01-07T07:10:16;2.90;99.90
6110;DHT22;3085;49.444;11.054;2024-01-07T07:12:44;2.80;99.90
6110;DHT22;3085;49.444;11.054;2024-01-07T07:15:11;2.90;99.90
6110;DHT22;3085;49.444;11.054;2024-01-07T07:17:38;2.90;99.90
6110;DHT22;3085;49.444;11.054;2024-01-07T07:20:09;3.00;99.90
6110;DHT22;3085;49.444;11.054;2024-01-07T07:22:36;2.90;99.90
6110;DHT22;3085;49.444;11.054;2024-01-07T07:25:03;2.30;99.90
6110;DHT22;3085;49.444;11.054;2024-01-07T07:27:34;2.70;99.90
6110;DHT22;3085;49.444;11.054;2024-01-07T07:30:02;2.80;99.90
6110;DHT22;3085;49.444;11.054;2024-01-07T07:32:29;2.80;99.90
6110;DHT22;3085;49.444;11.054;2024-01-07T07:34:56;3.00;99.90
6110;DHT22;3085;49.444;11.054;2024-01-07T07:37:23;2.70;99.90
6110;DHT22;3085;49.444;11.054;2024-01-07T07:39:53;2.80;99.90
6110;DHT22;3085;49.444;11.054;2024-01-07T07:42:21;2.70;99.90
6110;DHT22;3085;49.444;11.054;2024-01-07T07:44:48;2.60;99.90
6110;DHT22;3085;49.444;11.054;2024-01-07T07:47:16;2.60;99.90
6110;DHT22;3085;49.444;11.054;2024-01-07T07:49:43;2.50;99.90
6110;DHT22;3085;49.444;11.054;2024-01-07T07:52:10;2.60;99.90
6110;DHT22;3085;49.444;11.054;2024-01-07T07:54:39;2.50;99.90
6110;DHT22;3085;49.444;11.054;2024-01-07T07:57:06;2.60;99.90
6110;DHT22;3085;49.444;11.054;2024-01-07T07:59:34;2.50;99.90
6110;DHT22;3085;49.444;11.054;2024-01-07T08:02:00;2.50;99.90
6110;DHT22;3085;49.444;11.054;2024-01-07T08:04:28;2.50;99.90
6110;DHT22;3085;49.444;11.054;2024-01-07T08:06:57;2.60;99.90
6110;DHT22;3085;49.444;11.054;2024-01-07T08:09:26;2.60;99.90
6110;DHT22;3085;49.444;11.054;2024-01-07T08:11:53;2.60;99.90
6110;DHT22;3085;49.444;11.054;2024-01-07T08:14:19;2.60;99.90
6110;DHT22;3085;49.444;11.054;2024-01-07T08:16:46;2.60;99.90
6110;DHT22;3085;49.444;11.054;2024-01-07T08:19:13;2.50;99.90
6110;DHT22;3085;49.444;11.054;2024-01-07T08:21:41;2.40;99.90
6110;DHT22;3085;49.444;11.054;2024-01-07T08:24:08;2.50;99.90
6110;DHT22;3085;49.444;11.054;2024-01-07T08:26:36;2.30;99.90
6110;DHT22;3085;49.444;11.054;2024-01-07T08:29:02;2.40;99.90
6110;DHT22;3085;49.444;11.054;2024-01-07T08:31:29;2.50;99.90
6110;DHT22;3085;49.444;11.054;2024-01-07T08:33:56;2.40;99.90
6110;DHT22;3085;49.444;11.054;2024-01-07T08:36:23;2.40;99.90
6110;DHT22;3085;49.444;11.054;2024-01-07T08:38:51;2.40;99.90
6110;DHT22;3085;49.444;11.054;2024-01-07T08:41:18;2.50;99.90
6110;DHT22;3085;49.444;11.054;2024-01-07T08:43:45;2.40;99.90
6110;DHT22;3085;49.444;11.054;2024-01-07T08:46:12;2.40;99.90
6110;DHT22;3085;49.444;11.054;2024-01-07T08:48:39;2.40;99.90
6110;DHT22;3085;49.444;11.054;2024-01-07T08:51:06;2.50;99.90
6110;DHT22;3085;49.444;11.054;2024-01-07T08:53:33;2.50;99.90
6110;DHT22;3085;49.444;11.054;2024-01-07T08:56:02;2.40;99.90
6110;DHT22;3085;49.444;11.054;2024-01-07T08:58:29;2.30;99.90
6110;DHT22;3085;49.444;11.054;2024-01-07T09:00:55;2.30;99.90
6110;DHT22;3085;49.444;11.054;2024-01-07T09:03:22;2.20;99.90
6110;DHT22;3085;49.444;11.054;2024-01-07T09:05:49;2.30;99.90
6110;DHT22;3085;49.444;11.054;2024-01-07T09:08:15;2.10;99.90
6110;DHT22;3085;49.444;11.054;2024-01-07T09:10:42;2.20;99.90
6110;DHT22;3085;49.444;11.054;2024-01-07T09:13:10;2.20;99.90
6110;DHT22;3085;49.444;11.054;2024-01-07T09:15:37;2.10;99.90
6110;DHT22;3085;49.444;11.054;2024-01-07T09:18:04;2.00;99.90
6110;DHT22;3085;49.444;11.054;2024-01-07T09:20:31;2.10;99.90
6110;DHT22;3085;49.444;11.054;2024-01-07T09:22:59;2.00;99.90
6110;DHT22;3085;49.444;11.054;2024-01-07T09:25:25;2.00;99.90
6110;DHT22;3085;49.444;11.054;2024-01-07T09:27:52;2.00;99.90
6110;DHT22;3085;49.444;11.054;2024-01-07T09:30:20;1.90;99.90
6110;DHT22;3085;49.444;11.054;2024-01-07T09:32:47;1.80;99.90
6110;DHT22;3085;49.444;11.054;2024-01-07T09:35:13;1.70;99.90
6110;DHT22;3085;49.444;11.054;2024-01-07T09:37:40;1.60;99.90
6110;DHT22;3085;49.444;11.054;2024-01-07T09:40:08;1.60;99.90
6110;DHT22;3085;49.444;11.054;2024-01-07T09:42:34;1.60;99.90
6110;DHT22;3085;49.444;11.054;2024-01-07T09:45:03;1.60;99.90
6110;DHT22;3085;49.444;11.054;2024-01-07T09:47:31;1.60;99.90
6110;DHT22;3085;49.444;11.054;2024-01-07T09:49:58;1.80;99.90
6110;DHT22;3085;49.444;11.054;2024-01-07T09:52:25;1.80;99.90
6110;DHT22;3085;49.444;11.054;2024-01-07T09:54:58;1.80;99.90
6110;DHT22;3085;49.444;11.054;2024-01-07T09:57:25;1.70;99.90
6110;DHT22;3085;49.444;11.054;2024-01-07T09:59:52;1.80;99.90
6110;DHT22;3085;49.444;11.054;2024-01-07T10:02:19;1.70;99.90
6110;DHT22;3085;49.444;11.054;2024-01-07T10:04:48;1.70;99.90
6110;DHT22;3085;49.444;11.054;2024-01-07T10:07:15;1.80;99.90
6110;DHT22;3085;49.444;11.054;2024-01-07T10:09:43;1.70;99.90
6110;DHT22;3085;49.444;11.054;2024-01-07T10:12:10;1.70;99.90
6110;DHT22;3085;49.444;11.054;2024-01-07T10:14:38;1.60;99.90
6110;DHT22;3085;49.444;11.054;2024-01-07T10:17:14;1.60;99.90
6110;DHT22;3085;49.444;11.054;2024-01-07T10:19:43;1.50;99.90
6110;DHT22;3085;49.444;11.054;2024-01-07T10:22:12;1.60;99.90
6110;DHT22;3085;49.444;11.054;2024-01-07T10:24:42;1.50;99.90
6110;DHT22;3085;49.444;11.054;2024-01-07T10:27:10;1.40;99.90
6110;DHT22;3085;49.444;11.054;2024-01-07T10:29:37;1.40;99.90
6110;DHT22;3085;49.444;11.054;2024-01-07T10:32:23;1.50;99.90
6110;DHT22;3085;49.444;11.054;2024-01-07T10:35:05;1.60;99.90
6110;DHT22;3085;49.444;11.054;2024-01-07T10:37:33;1.60;99.90
6110;DHT22;3085;49.444;11.054;2024-01-07T10:40:00;1.60;99.90
6110;DHT22;3085;49.444;11.054;2024-01-07T10:42:30;1.50;99.90
6110;DHT22;3085;49.444;11.054;2024-01-07T10:45:02;1.60;99.90
6110;DHT22;3085;49.444;11.054;2024-01-07T10:47:32;1.50;99.90
6110;DHT22;3085;49.444;11.054;2024-01-07T10:50:02;1.50;99.90
6110;DHT22;3085;49.444;11.054;2024-01-07T10:52:29;1.60;99.90
6110;DHT22;3085;49.444;11.054;2024-01-07T10:55:03;1.40;99.90
6110;DHT22;3085;49.444;11.054;2024-01-07T10:57:38;1.40;99.90
6110;DHT22;3085;49.444;11.054;2024-01-07T11:00:06;1.40;99.90
6110;DHT22;3085;49.444;11.054;2024-01-07T11:02:40;1.50;99.90
6110;DHT22;3085;49.444;11.054;2024-01-07T11:05:14;1.50;99.90
6110;DHT22;3085;49.444;11.054;2024-01-07T11:07:49;1.60;99.90
6110;DHT22;3085;49.444;11.054;2024-01-07T11:10:26;1.70;99.90
6110;DHT22;3085;49.444;11.054;2024-01-07T11:12:59;1.60;99.90
6110;DHT22;3085;49.444;11.054;2024-01-07T11:15:53;1.50;99.90
6110;DHT22;3085;49.444;11.054;2024-01-07T11:18:21;1.30;99.90
6110;DHT22;3085;49.444;11.054;2024-01-07T11:20:49;1.30;99.90
6110;DHT22;3085;49.444;11.054;2024-01-07T11:23:33;1.30;99.90
6110;DHT22;3085;49.444;11.054;2024-01-07T11:26:04;1.20;99.90
6110;DHT22;3085;49.444;11.054;2024-01-07T11:28:47;1.30;99.90
6110;DHT22;3085;49.444;11.054;2024-01-07T11:31:15;1.30;99.90
6110;DHT22;3085;49.444;11.054;2024-01-07T11:33:42;1.30;99.90
6110;DHT22;3085;49.444;11.054;2024-01-07T11:36:11;1.40;99.90
6110;DHT22;3085;49.444;11.054;2024-01-07T11:38:40;1.50;99.90
6110;DHT22;3085;49.444;11.054;2024-01-07T11:41:09;1.40;99.90
6110;DHT22;3085;49.444;11.054;2024-01-07T11:43:37;1.30;99.90
6110;DHT22;3085;49.444;11.054;2024-01-07T11:46:04;1.40;99.90
6110;DHT22;3085;49.444;11.054;2024-01-07T11:48:31;1.50;99.90
6110;DHT22;3085;49.444;11.054;2024-01-07T11:50:58;1.20;99.90
6110;DHT22;3085;49.444;11.054;2024-01-07T11:53:24;1.30;99.90
6110;DHT22;3085;49.444;11.054;2024-01-07T11:55:51;1.20;99.90
6110;DHT22;3085;49.444;11.054;2024-01-07T11:58:19;1.20;99.90
6110;DHT22;3085;49.444;11.054;2024-01-07T12:00:46;1.30;99.90
6110;DHT22;3085;49.444;11.054;2024-01-07T12:03:13;1.40;99.90
6110;DHT22;3085;49.444;11.054;2024-01-07T12:05:40;1.30;99.90
6110;DHT22;3085;49.444;11.054;2024-01-07T12:08:07;1.30;99.90
6110;DHT22;3085;49.444;11.054;2024-01-07T12:10:34;1.20;99.90
6110;DHT22;3085;49.444;11.054;2024-01-07T12:13:01;1.20;99.90
6110;DHT22;3085;49.444;11.054;2024-01-07T12:15:30;1.20;99.90
6110;DHT22;3085;49.444;11.054;2024-01-07T12:17:58;1.20;99.90
6110;DHT22;3085;49.444;11.054;2024-01-07T12:20:27;1.30;99.90
6110;DHT22;3085;49.444;11.054;2024-01-07T12:22:56;1.40;99.90
6110;DHT22;3085;49.444;11.054;2024-01-07T12:25:24;1.40;99.90
6110;DHT22;3085;49.444;11.054;2024-01-07T12:27:51;1.40;99.90
6110;DHT22;3085;49.444;11.054;2024-01-07T12:30:20;1.40;99.90
6110;DHT22;3085;49.444;11.054;2024-01-07T12:32:48;1.40;99.90
6110;DHT22;3085;49.444;11.054;2024-01-07T12:35:17;1.20;99.90
6110;DHT22;3085;49.444;11.054;2024-01-07T12:37:44;1.30;99.90
6110;DHT22;3085;49.444;11.054;2024-01-07T12:40:12;1.30;99.90
6110;DHT22;3085;49.444;11.054;2024-01-07T12:42:38;1.20;99.90
6110;DHT22;3085;49.444;11.054;2024-01-07T12:45:11;1.10;99.90
6110;DHT22;3085;49.444;11.054;2024-01-07T12:47:39;1.10;99.90
6110;DHT22;3085;49.444;11.054;2024-01-07T12:50:07;1.20;99.90
6110;DHT22;3085;49.444;11.054;2024-01-07T12:52:35;1.00;99.90
6110;DHT22;3085;49.444;11.054;2024-01-07T12:55:03;1.00;99.90
6110;DHT22;3085;49.444;11.054;2024-01-07T12:57:29;1.20;99.90
6110;DHT22;3085;49.444;11.054;2024-01-07T12:59:56;1.30;99.90
6110;DHT22;3085;49.444;11.054;2024-01-07T13:02:23;1.20;99.90
6110;DHT22;3085;49.444;11.054;2024-01-07T13:04:50;1.10;99.90
6110;DHT22;3085;49.444;11.054;2024-01-07T13:07:18;1.10;99.90
6110;DHT22;3085;49.444;11.054;2024-01-07T13:09:44;1.20;99.90
6110;DHT22;3085;49.444;11.054;2024-01-07T13:12:11;1.20;99.90
6110;DHT22;3085;49.444;11.054;2024-01-07T13:14:38;1.20;99.90
6110;DHT22;3085;49.444;11.054;2024-01-07T13:17:05;1.10;99.90
6110;DHT22;3085;49.444;11.054;2024-01-07T13:19:33;1.10;99.90
6110;DHT22;3085;49.444;11.054;2024-01-07T13:22:00;1.20;99.90
6110;DHT22;3085;49.444;11.054;2024-01-07T13:24:28;1.10;99.90
6110;DHT22;3085;49.444;11.054;2024-01-07T13:26:55;1.10;99.90
6110;DHT22;3085;49.444;11.054;2024-01-07T13:29:22;1.10;99.90
6110;DHT22;3085;49.444;11.054;2024-01-07T13:31:49;1.10;99.90
6110;DHT22;3085;49.444;11.054;2024-01-07T13:34:16;1.20;99.90
6110;DHT22;3085;49.444;11.054;2024-01-07T13:36:44;1.20;99.90
6110;DHT22;3085;49.444;11.054;2024-01-07T13:39:12;1.00;99.90
6110;DHT22;3085;49.444;11.054;2024-01-07T13:41:42;0.90;99.90
6110;DHT22;3085;49.444;11.054;2024-01-07T13:44:09;0.90;99.90
6110;DHT22;3085;49.444;11.054;2024-01-07T13:46:43;0.90;99.90
6110;DHT22;3085;49.444;11.054;2024-01-07T13:49:10;0.90;99.90
6110;DHT22;3085;49.444;11.054;2024-01-07T13:51:36;0.80;99.90
6110;DHT22;3085;49.444;11.054;2024-01-07T13:54:04;0.90;99.90
6110;DHT22;3085;49.444;11.054;2024-01-07T13:56:31;0.90;99.90
6110;DHT22;3085;49.444;11.054;2024-01-07T13:59:02;1.00;99.90
6110;DHT22;3085;49.444;11.054;2024-01-07T14:01:31;1.00;99.90
6110;DHT22;3085;49.444;11.054;2024-01-07T14:03:57;0.90;99.90
6110;DHT22;3085;49.444;11.054;2024-01-07T14:06:24;1.00;99.90
6110;DHT22;3085;49.444;11.054;2024-01-07T14:08:51;0.90;99.90
6110;DHT22;3085;49.444;11.054;2024-01-07T14:11:19;0.90;99.90
6110;DHT22;3085;49.444;11.054;2024-01-07T14:13:46;0.90;99.90
6110;DHT22;3085;49.444;11.054;2024-01-07T14:16:14;1.00;99.90
6110;DHT22;3085;49.444;11.054;2024-01-07T14:18:41;1.20;99.90
6110;DHT22;3085;49.444;11.054;2024-01-07T14:21:08;1.20;99.90
6110;DHT22;3085;49.444;11.054;2024-01-07T14:23:35;1.20;99.90
6110;DHT22;3085;49.444;11.054;2024-01-07T14:26:02;1.20;99.90
6110;DHT22;3085;49.444;11.054;2024-01-07T14:28:30;1.20;99.90
6110;DHT22;3085;49.444;11.054;2024-01-07T14:30:56;1.20;99.90
6110;DHT22;3085;49.444;11.054;2024-01-07T14:33:26;1.00;99.90
6110;DHT22;3085;49.444;11.054;2024-01-07T14:35:53;1.00;99.90
6110;DHT22;3085;49.444;11.054;2024-01-07T14:38:19;0.90;99.90
6110;DHT22;3085;49.444;11.054;2024-01-07T14:40:47;1.00;99.90
6110;DHT22;3085;49.444;11.054;2024-01-07T14:43:16;0.90;99.90
6110;DHT22;3085;49.444;11.054;2024-01-07T14:45:43;0.80;99.90
6110;DHT22;3085;49.444;11.054;2024-01-07T14:48:10;0.80;99.90
6110;DHT22;3085;49.444;11.054;2024-01-07T14:50:38;0.80;99.90
6110;DHT22;3085;49.444;11.054;2024-01-07T14:53:04;0.70;99.90
6110;DHT22;3085;49.444;11.054;2024-01-07T14:55:32;0.60;99.90
6110;DHT22;3085;49.444;11.054;2024-01-07T14:57:58;0.60;99.90
6110;DHT22;3085;49.444;11.054;2024-01-07T15:00:25;0.60;99.90
6110;DHT22;3085;49.444;11.054;2024-01-07T15:02:52;0.50;99.90
6110;DHT22;3085;49.444;11.054;2024-01-07T15:05:21;0.50;99.90
6110;DHT22;3085;49.444;11.054;2024-01-07T15:07:49;0.60;99.90
6110;DHT22;3085;49.444;11.054;2024-01-07T15:10:18;0.60;99.90
6110;DHT22;3085;49.444;11.054;2024-01-07T15:12:45;0.70;99.90
6110;DHT22;3085;49.444;11.054;2024-01-07T15:15:17;0.70;99.90
6110;DHT22;3085;49.444;11.054;2024-01-07T15:17:46;0.80;99.90
6110;DHT22;3085;49.444;11.054;2024-01-07T15:20:12;0.80;99.90
6110;DHT22;3085;49.444;11.054;2024-01-07T15:22:40;0.70;99.90
6110;DHT22;3085;49.444;11.054;2024-01-07T15:25:09;1.00;99.90
6110;DHT22;3085;49.444;11.054;2024-01-07T15:27:36;0.70;99.90
6110;DHT22;3085;49.444;11.054;2024-01-07T15:30:03;0.70;99.90
6110;DHT22;3085;49.444;11.054;2024-01-07T15:32:30;0.60;99.90
6110;DHT22;3085;49.444;11.054;2024-01-07T15:34:57;0.60;99.90
6110;DHT22;3085;49.444;11.054;2024-01-07T15:37:24;0.50;99.90
6110;DHT22;3085;49.444;11.054;2024-01-07T15:39:51;0.50;99.90
6110;DHT22;3085;49.444;11.054;2024-01-07T15:42:21;0.60;99.90
6110;DHT22;3085;49.444;11.054;2024-01-07T15:44:48;0.60;99.90
6110;DHT22;3085;49.444;11.054;2024-01-07T15:47:15;0.60;99.90
6110;DHT22;3085;49.444;11.054;2024-01-07T15:49:42;0.70;99.90
6110;DHT22;3085;49.444;11.054;2024-01-07T15:52:08;0.70;99.90
6110;DHT22;3085;49.444;11.054;2024-01-07T15:54:35;0.70;99.90
6110;DHT22;3085;49.444;11.054;2024-01-07T15:57:02;0.60;99.90
6110;DHT22;3085;49.444;11.054;2024-01-07T15:59:32;0.60;99.90
6110;DHT22;3085;49.444;11.054;2024-01-07T16:02:00;0.50;99.90
6110;DHT22;3085;49.444;11.054;2024-01-07T16:04:26;0.30;99.90
6110;DHT22;3085;49.444;11.054;2024-01-07T16:06:53;0.40;99.90
6110;DHT22;3085;49.444;11.054;2024-01-07T16:09:20;0.50;99.90